Etusivu
METAR-TAF:

METAR-TAF

Lentoasemat :

David Wayne Hooks Memorial Airport

Houston / Tomball, Texas, Yhdysvallat

Leveyspiiri: 30-04-03N, Pituuspiiri: 095-33-22W, korkeus merenpinnasta: 46 m

Tämänhetkinen sää

Tämä raportti tehtiin 51 minuuttia sitten, kello 00.53 UTC
Tuuli 9 kn kaakosta
Lämpötila 21°C
Kosteus 83%
Ilmanpaine 1017 hPa
Näkyvyys: 16.1 km
Hajonneita pilviä 2200 ft:n korkeudessa
Hajonneita pilviä 4700 ft:n korkeudessa
Pilvistä 7000 ft:n korkeudessa

METAR: KDWH 080053Z 13009KT 10SM BKN022 BKN047 OVC070 21/18 A3002 RMK AO2 RAB02E12 SLP163 P0000 T02110178

Aika: 19:44 (01:44 UTC)


TAF: puuttuu

Säähavainnot ja -ennusteet yli 4000 lentoasemalta (METAR- ja TAF-raportit).

Käytössä olevat sääasemat on merkitty karttaan keltaisilla ja punaisilla pisteillä.

Aseta hiiri pisteen päälle nähdäksesi sääaseman nimen.

Klikkaa sitten nähdäksesi säähavainnot ja -ennusteet.

Kartan vaihtaminen: klikkaa mustalla rastilla varustettuja vihreitä pisteitä, niin voit zoomata sisään; viivalla varustettua vihreää pistettä, niin voit zoomata ulos tai vihreitä nuolia, niin pääset viereisille kartoille.


METAR-TAF: